Aérodrome :
LOGIN :

S'inscrire | Disclaimer

   EN    FR    IT 

 










Légende :    VFR   VFR Marginal   IFR   IFR Intensif   IFR Très Intensif
Visi : 
Plafond : 
>= 8 km
>= 3000ft
5 à 8 km
1000 à 3000 ft
1500m à 5 km
500 à 1000 ft
800 à 1500m
200 à 500 ft
< 800m
< 200 ft
Symboles :   Orages  Brouillard  Fortes neiges  Fortes précipitations  Vent > 20 kt
SIGMETs :   Divers  Orages  Givrage  Turbulence  Onde Orograph.  Cendres Volcan.







- Altitude de l'aérodrome : 650 ft
- Code IATA : ZJI


LSZL - Locarno

DERNIER METAR :
  • 170850Z 07004KT 050V110 9999 SCT100 13/10 Q1021 RMK BLU+

METARs EXPIRÉS :
  • 170820Z 00000KT 7000 SCT100 11/10 Q1021 RMK WHT
  • 170750Z 00000KT 7000 SCT130 09/09 Q1021 RMK WHT
  • 170720Z 03001KT 8000 MIFG NSC 08/08 Q1022 RMK BLU
  • 170650Z VRB01KT 6000 MIFG NSC 08/08 Q1021 RMK WHT
  • 170620Z 00000KT 7000 MIFG NSC 08/08 Q1021 RMK WHT

TAF TAF LSZL
Valide du 17 à 06h jusqu'au 17 à 15h UTC


170525Z 1706/1715 VRB03KT 8000 MIFG NSC
PROB30 1706/1708 4000 BR
TEMPO 1708/1715 CAVOK
Pas de NOTAMs connus pour ce terrain.



MET'MAP, la Météo Aéronautique d'un coup d'oeil ! - Copyright ORBIFLY Décembre 2007 - Disclaimer

ORBIFLY MET'MAP TEAM :

Programmation & Développement : Alexandra Zaïnal
Conception & Développement : Baudouin d'Aumeries
Co-Programmation & Développement : Marc-Olivier Méhu
Soutien technique & logistique : Manuel Goepfert

Contact : metmap@orbifly.com




SOURCES & CREDITS :

   NOAA